Time;durP1;ratioP1;P1;durP2;ratioP2;P2;SDS_P1;SDS_P2;PMS_P1;PMS_P2;Temp;Humidity;BMP_temperature;BMP_pressure;BME280_temperature;BME280_humidity;BME280_pressure;Samples;Min_cycle;Max_cycle;Signal;HPM_P1;HPM_P2
2021/05/09 00:01:18;;;;;;;;;;;7.50;99.90;;;;;;8359449;28;19904;-67
2021/05/09 00:05:19;;;;;;;;;;;7.50;99.90;;;;;;8359424;28;19905;-67
2021/05/09 00:09:19;;;;;;;;;;;7.30;99.90;;;;;;8358013;28;19914;-67
2021/05/09 00:13:20;;;;;;;;;;;7.20;99.90;;;;;;8359049;28;20011;-67
2021/05/09 00:17:20;;;;;;;;;;;7.00;99.90;;;;;;8357849;28;19905;-67
2021/05/09 00:21:21;;;;;;;;;;;7.10;99.90;;;;;;8359136;28;19905;-67
2021/05/09 00:25:21;;;;;;;;;;;7.00;99.90;;;;;;8358151;28;19905;-67
2021/05/09 00:29:22;;;;;;;;;;;6.90;99.90;;;;;;8358816;28;19954;-67
2021/05/09 00:33:22;;;;;;;;;;;7.10;99.90;;;;;;8358693;28;19958;-67
2021/05/09 00:37:23;;;;;;;;;;;7.10;99.90;;;;;;8357374;28;19905;-67
2021/05/09 00:41:23;;;;;;;;;;;7.20;99.90;;;;;;8358496;28;19912;-67
2021/05/09 00:45:23;;;;;;;;;;;7.00;99.90;;;;;;8358432;28;19904;-67
2021/05/09 00:49:24;;;;;;;;;;;6.90;99.90;;;;;;8358605;28;19963;-67
2021/05/09 00:53:25;;;;;;;;;;;6.80;99.90;;;;;;8358121;28;19905;-67
2021/05/09 00:57:25;;;;;;;;;;;6.90;99.90;;;;;;8358498;28;19963;-67
2021/05/09 01:01:26;;;;;;;;;;;6.70;99.90;;;;;;8357068;28;20355;-67
2021/05/09 01:05:26;;;;;;;;;;;6.70;99.90;;;;;;8357466;28;19908;-67
2021/05/09 01:09:27;;;;;;;;;;;6.70;99.90;;;;;;8356977;28;19915;-67
2021/05/09 01:13:27;;;;;;;;;;;7.00;99.90;;;;;;8358247;28;20477;-67
2021/05/09 01:17:28;;;;;;;;;;;6.90;99.90;;;;;;8358151;28;19909;-67
2021/05/09 01:21:28;;;;;;;;;;;6.90;99.90;;;;;;8358037;28;19909;-67
2021/05/09 01:25:29;;;;;;;;;;;6.90;99.90;;;;;;8356466;28;20371;-67
2021/05/09 01:29:30;;;;;;;;;;;6.70;99.90;;;;;;8358043;28;20352;-68
2021/05/09 01:33:31;;;;;;;;;;;6.90;99.90;;;;;;8357675;28;19905;-67
2021/05/09 01:37:31;;;;;;;;;;;6.90;99.90;;;;;;8360419;28;19904;-68
2021/05/09 01:41:32;;;;;;;;;;;6.70;99.90;;;;;;8363461;28;20073;-67
2021/05/09 01:45:33;;;;;;;;;;;7.00;99.90;;;;;;8363854;28;19911;-67
2021/05/09 01:49:33;;;;;;;;;;;7.00;99.90;;;;;;8363314;28;19912;-67
2021/05/09 01:53:34;;;;;;;;;;;6.80;99.90;;;;;;8363052;28;19951;-68
2021/05/09 01:57:34;;;;;;;;;;;6.70;99.90;;;;;;8362020;28;19905;-67
2021/05/09 02:01:35;;;;;;;;;;;6.70;99.90;;;;;;8362762;28;20286;-67
2021/05/09 02:05:35;;;;;;;;;;;6.50;99.90;;;;;;8362705;28;19909;-67
2021/05/09 02:09:36;;;;;;;;;;;6.70;99.90;;;;;;8362725;28;19999;-68
2021/05/09 02:13:36;;;;;;;;;;;6.90;99.90;;;;;;8361170;28;19908;-67
2021/05/09 02:17:37;;;;;;;;;;;6.90;99.90;;;;;;8362295;28;19912;-67
2021/05/09 02:21:37;;;;;;;;;;;7.10;99.90;;;;;;8361330;28;19930;-67
2021/05/09 02:25:38;;;;;;;;;;;6.90;99.90;;;;;;8362103;28;19904;-67
2021/05/09 02:29:38;;;;;;;;;;;6.90;99.90;;;;;;8362015;28;19944;-67
2021/05/09 02:33:39;;;;;;;;;;;6.80;99.90;;;;;;8361773;28;19916;-67
2021/05/09 02:37:39;;;;;;;;;;;6.60;99.90;;;;;;8362318;28;19908;-67
2021/05/09 02:41:40;;;;;;;;;;;6.60;99.90;;;;;;8361606;28;19935;-68
2021/05/09 02:45:41;;;;;;;;;;;6.30;99.90;;;;;;8360267;28;20385;-67
2021/05/09 02:49:41;;;;;;;;;;;6.20;99.90;;;;;;8361255;28;19931;-67
2021/05/09 02:53:41;;;;;;;;;;;6.00;99.90;;;;;;8361285;28;19905;-67
2021/05/09 02:57:42;;;;;;;;;;;6.00;99.90;;;;;;8361137;28;20003;-67
2021/05/09 03:01:42;;;;;;;;;;;6.00;99.90;;;;;;8359707;28;20047;-67
2021/05/09 03:05:43;;;;;;;;;;;5.90;99.90;;;;;;8360533;28;19905;-68
2021/05/09 03:09:43;;;;;;;;;;;6.00;99.90;;;;;;8360956;28;20358;-67
2021/05/09 03:13:44;;;;;;;;;;;5.80;99.90;;;;;;8360743;28;20359;-67
2021/05/09 03:17:44;;;;;;;;;;;5.70;99.90;;;;;;8361022;28;20359;-67
2021/05/09 03:21:45;;;;;;;;;;;5.50;99.90;;;;;;8360565;28;19931;-67
2021/05/09 03:25:48;;;;;;;;;;;5.60;99.90;;;;;;8360295;28;19905;-67
2021/05/09 03:29:49;;;;;;;;;;;5.30;99.90;;;;;;8360413;28;19962;-67
2021/05/09 03:33:49;;;;;;;;;;;5.70;99.90;;;;;;8360272;28;19905;-67
2021/05/09 03:37:50;;;;;;;;;;;5.50;99.90;;;;;;8360328;28;19988;-67
2021/05/09 03:41:50;;;;;;;;;;;5.30;99.90;;;;;;8360195;28;20375;-68
2021/05/09 03:45:50;;;;;;;;;;;5.30;99.90;;;;;;8360131;28;19911;-67
2021/05/09 03:49:52;;;;;;;;;;;5.30;99.90;;;;;;8359643;28;19908;-67
2021/05/09 03:53:52;;;;;;;;;;;5.60;99.90;;;;;;8359539;28;19955;-67
2021/05/09 03:57:53;;;;;;;;;;;5.70;99.90;;;;;;8357609;28;19905;-67
2021/05/09 04:01:53;;;;;;;;;;;5.80;99.90;;;;;;8359585;28;19912;-68
2021/05/09 04:05:54;;;;;;;;;;;5.60;99.90;;;;;;8359354;28;19912;-67
2021/05/09 04:09:55;;;;;;;;;;;5.50;99.90;;;;;;8359210;28;19996;-67
2021/05/09 04:13:55;;;;;;;;;;;5.60;99.90;;;;;;8359247;28;19920;-67
2021/05/09 04:17:56;;;;;;;;;;;5.70;99.90;;;;;;8359436;28;19908;-67
2021/05/09 04:21:56;;;;;;;;;;;6.00;99.90;;;;;;8357915;28;19944;-67
2021/05/09 04:25:57;;;;;;;;;;;6.20;99.90;;;;;;8358985;28;19904;-67
2021/05/09 04:29:57;;;;;;;;;;;6.30;99.90;;;;;;8359304;28;20290;-67
2021/05/09 04:33:58;;;;;;;;;;;6.40;99.90;;;;;;8358787;28;19911;-67
2021/05/09 04:37:58;;;;;;;;;;;6.70;99.90;;;;;;8358939;28;19950;-67
2021/05/09 04:41:59;;;;;;;;;;;6.80;99.90;;;;;;8358738;28;19913;-67
2021/05/09 04:45:59;;;;;;;;;;;7.20;99.90;;;;;;8358161;28;20432;-67
2021/05/09 04:50:00;;;;;;;;;;;7.50;99.90;;;;;;8357511;28;20512;-67
2021/05/09 04:54:01;;;;;;;;;;;7.80;99.90;;;;;;8344327;28;19913;-67
2021/05/09 04:58:01;;;;;;;;;;;7.90;99.90;;;;;;8340952;28;20043;-67
2021/05/09 05:02:02;;;;;;;;;;;8.00;99.90;;;;;;8341741;28;20331;-67
2021/05/09 05:06:03;;;;;;;;;;;8.10;99.90;;;;;;8345264;28;20007;-68
2021/05/09 05:10:04;;;;;;;;;;;8.40;99.90;;;;;;8341901;28;19939;-67
2021/05/09 05:14:04;;;;;;;;;;;8.60;99.90;;;;;;8345866;28;19944;-67
2021/05/09 05:18:06;;;;;;;;;;;9.00;99.90;;;;;;8341447;28;20291;-67
2021/05/09 05:22:06;;;;;;;;;;;9.10;99.90;;;;;;8334839;28;20214;-67
2021/05/09 05:26:07;;;;;;;;;;;9.40;99.90;;;;;;8346578;28;19916;-67
2021/05/09 05:30:08;;;;;;;;;;;9.70;99.90;;;;;;8346659;28;19909;-68
2021/05/09 05:34:08;;;;;;;;;;;10.10;99.90;;;;;;8345324;28;19973;-67
2021/05/09 05:38:09;;;;;;;;;;;10.40;99.90;;;;;;8345346;28;19905;-67
2021/05/09 05:42:09;;;;;;;;;;;10.70;99.90;;;;;;8337757;28;19923;-68
2021/05/09 05:46:10;;;;;;;;;;;11.10;99.90;;;;;;8336744;28;19919;-68
2021/05/09 05:50:10;;;;;;;;;;;11.40;99.90;;;;;;8340647;28;19919;-71
2021/05/09 05:54:11;;;;;;;;;;;11.90;99.90;;;;;;8344067;28;20557;-72
2021/05/09 05:58:12;;;;;;;;;;;12.30;99.90;;;;;;8356063;28;19912;-72
2021/05/09 06:02:13;;;;;;;;;;;13.10;99.90;;;;;;8351501;28;19909;-73
2021/05/09 06:06:13;;;;;;;;;;;14.00;99.90;;;;;;8342834;28;19916;-71
2021/05/09 06:10:14;;;;;;;;;;;14.30;99.90;;;;;;8337525;28;20277;-71
2021/05/09 06:14:14;;;;;;;;;;;14.40;99.90;;;;;;8344118;28;19967;-72
2021/05/09 06:18:15;;;;;;;;;;;14.50;99.90;;;;;;8346131;28;19908;-71
2021/05/09 06:22:16;;;;;;;;;;;14.50;99.90;;;;;;8358991;28;20623;-73
2021/05/09 06:26:16;;;;;;;;;;;14.60;99.90;;;;;;8340108;28;19966;-71
2021/05/09 06:30:17;;;;;;;;;;;14.80;99.90;;;;;;8358765;28;20375;-71
2021/05/09 06:34:18;;;;;;;;;;;15.00;99.90;;;;;;8340266;28;19909;-71
2021/05/09 06:38:18;;;;;;;;;;;15.20;99.90;;;;;;8348085;28;20283;-71
2021/05/09 06:42:19;;;;;;;;;;;15.60;99.90;;;;;;8359520;28;19948;-72
2021/05/09 06:46:19;;;;;;;;;;;15.80;99.90;;;;;;8353498;28;19909;-72
2021/05/09 06:50:20;;;;;;;;;;;16.10;99.90;;;;;;8354679;28;19920;-72
2021/05/09 06:54:20;;;;;;;;;;;16.40;99.90;;;;;;8351829;28;19917;-71
2021/05/09 06:58:22;;;;;;;;;;;16.70;99.90;;;;;;8354824;28;19911;-71
2021/05/09 07:02:22;;;;;;;;;;;17.10;99.90;;;;;;8360918;28;19999;-71
2021/05/09 07:06:23;;;;;;;;;;;17.40;99.90;;;;;;8361114;28;19909;-73
2021/05/09 07:10:25;;;;;;;;;;;17.60;99.90;;;;;;8344004;28;19948;-72
2021/05/09 07:14:25;;;;;;;;;;;17.90;99.90;;;;;;8340226;28;19908;-72
2021/05/09 07:18:26;;;;;;;;;;;18.00;99.90;;;;;;8339496;28;19909;-73
2021/05/09 07:22:29;;;;;;;;;;;18.10;99.90;;;;;;8343774;28;19913;-72
2021/05/09 07:26:30;;;;;;;;;;;18.40;99.90;;;;;;8339701;28;19915;-73
2021/05/09 07:30:31;;;;;;;;;;;18.60;99.90;;;;;;8354157;28;19947;-73
2021/05/09 07:34:31;;;;;;;;;;;18.80;99.90;;;;;;8358051;28;19915;-72
2021/05/09 07:38:32;;;;;;;;;;;18.90;99.90;;;;;;8348553;28;19923;-72
2021/05/09 07:42:32;;;;;;;;;;;19.00;99.90;;;;;;8330961;28;19913;-73
2021/05/09 07:46:33;;;;;;;;;;;19.10;99.90;;;;;;8327563;28;19912;-73
2021/05/09 07:50:33;;;;;;;;;;;19.20;99.90;;;;;;8340810;22;19976;-65
2021/05/09 07:54:34;;;;;;;;;;;19.30;99.90;;;;;;8279324;28;19913;-66
2021/05/09 07:58:35;;;;;;;;;;;19.50;99.90;;;;;;8275445;28;19913;-66
2021/05/09 08:02:35;;;;;;;;;;;19.80;99.90;;;;;;8310038;28;19921;-65
2021/05/09 08:06:38;;;;;;;;;;;20.00;99.90;;;;;;8315865;28;19916;-66
2021/05/09 08:10:40;;;;;;;;;;;20.30;99.90;;;;;;8297691;28;19968;-66
2021/05/09 08:14:40;;;;;;;;;;;20.50;99.90;;;;;;8303511;28;19913;-65
2021/05/09 08:18:40;;;;;;;;;;;20.90;99.90;;;;;;8297430;28;19949;-67
2021/05/09 08:22:41;;;;;;;;;;;21.20;99.90;;;;;;8291271;28;19975;-65
2021/05/09 08:26:42;;;;;;;;;;;21.40;99.90;;;;;;8299064;28;19909;-65
2021/05/09 08:30:43;;;;;;;;;;;21.70;99.90;;;;;;8325816;28;19909;-66
2021/05/09 08:34:43;;;;;;;;;;;21.80;97.00;;;;;;8317299;28;19968;-65
2021/05/09 08:38:44;;;;;;;;;;;22.10;95.50;;;;;;8305485;28;19909;-64
2021/05/09 08:42:47;;;;;;;;;;;22.00;97.30;;;;;;8325161;28;19909;-64
2021/05/09 08:46:47;;;;;;;;;;;22.40;98.20;;;;;;8332158;28;19905;-65
2021/05/09 08:50:49;;;;;;;;;;;22.90;93.20;;;;;;8324122;28;19924;-65
2021/05/09 08:54:50;;;;;;;;;;;23.30;80.10;;;;;;8310250;28;19945;-65
2021/05/09 08:58:50;;;;;;;;;;;23.50;88.90;;;;;;8297444;28;20387;-65
2021/05/09 09:02:51;;;;;;;;;;;23.50;91.30;;;;;;8318053;28;19909;-65
2021/05/09 09:06:53;;;;;;;;;;;23.70;90.10;;;;;;8303463;28;19909;-64
2021/05/09 09:10:54;;;;;;;;;;;23.80;84.90;;;;;;8321578;28;19909;-66
2021/05/09 09:14:56;;;;;;;;;;;23.80;91.50;;;;;;8280521;28;20364;-65
2021/05/09 09:19:05;;;;;;;;;;;23.90;90.60;;;;;;8283249;28;20390;-65
2021/05/09 09:23:09;;;;;;;;;;;24.20;84.70;;;;;;8305939;28;19959;-65
2021/05/09 09:27:10;;;;;;;;;;;24.50;87.30;;;;;;8294835;28;19956;-65
2021/05/09 09:31:10;;;;;;;;;;;24.50;88.10;;;;;;8314341;28;20256;-65
2021/05/09 09:35:27;;;;;;;;;;;24.70;86.20;;;;;;8317898;28;19919;-65
2021/05/09 09:39:43;;;;;;;;;;;24.90;86.40;;;;;;8301147;28;19915;-65
2021/05/09 09:43:59;;;;;;;;;;;25.00;83.80;;;;;;8329885;28;19999;-65
2021/05/09 09:48:01;;;;;;;;;;;25.00;78.00;;;;;;8330777;28;19905;-65
2021/05/09 09:52:03;;;;;;;;;;;25.20;73.50;;;;;;8329553;28;20439;-65
2021/05/09 09:56:06;;;;;;;;;;;25.30;74.10;;;;;;8329006;28;19905;-65
2021/05/09 10:00:11;;;;;;;;;;;25.50;75.60;;;;;;8329929;28;20371;-65
2021/05/09 10:04:13;;;;;;;;;;;25.70;74.40;;;;;;8327502;28;19996;-65
2021/05/09 10:08:13;;;;;;;;;;;26.10;78.50;;;;;;8327468;28;19917;-65
2021/05/09 10:12:14;;;;;;;;;;;26.30;74.70;;;;;;8312155;28;19916;-65
2021/05/09 10:16:18;;;;;;;;;;;26.50;73.90;;;;;;8322451;28;20372;-65
2021/05/09 10:20:19;;;;;;;;;;;26.60;72.50;;;;;;8329023;28;20380;-65
2021/05/09 10:24:22;;;;;;;;;;;26.70;69.00;;;;;;8325307;28;19964;-65
2021/05/09 10:28:24;;;;;;;;;;;26.80;68.60;;;;;;8281336;28;19917;-65
2021/05/09 10:32:25;;;;;;;;;;;27.10;62.20;;;;;;8299025;28;19924;-65
2021/05/09 10:36:25;;;;;;;;;;;26.90;65.10;;;;;;8303549;28;19910;-65
2021/05/09 10:40:36;;;;;;;;;;;27.00;64.90;;;;;;8309492;28;19978;-65
2021/05/09 10:44:36;;;;;;;;;;;27.10;62.30;;;;;;8284809;28;20379;-65
2021/05/09 10:48:37;;;;;;;;;;;27.40;58.60;;;;;;8306413;28;19924;-65
2021/05/09 10:52:45;;;;;;;;;;;27.40;60.60;;;;;;8318580;28;19917;-65
2021/05/09 10:56:46;;;;;;;;;;;27.80;56.60;;;;;;8302500;28;20027;-64
2021/05/09 11:00:56;;;;;;;;;;;28.00;57.20;;;;;;8320177;28;20446;-65
2021/05/09 11:04:56;;;;;;;;;;;28.30;52.50;;;;;;8301435;28;19913;-65
2021/05/09 11:08:58;;;;;;;;;;;27.90;49.10;;;;;;8299471;28;19916;-65
2021/05/09 11:13:03;;;;;;;;;;;28.70;52.40;;;;;;8310673;28;19972;-65
2021/05/09 11:17:06;;;;;;;;;;;30.60;48.70;;;;;;8309386;28;19909;-64
2021/05/09 11:21:07;;;;;;;;;;;33.30;42.10;;;;;;8301892;28;20659;-64
2021/05/09 11:25:09;;;;;;;;;;;35.80;38.40;;;;;;8309190;28;21288;-64
2021/05/09 11:29:13;;;;;;;;;;;36.50;34.00;;;;;;8318929;28;19917;-65
2021/05/09 11:33:13;;;;;;;;;;;35.10;35.90;;;;;;8309625;28;19955;-65
2021/05/09 11:37:14;;;;;;;;;;;34.40;35.20;;;;;;8305574;28;19914;-65
2021/05/09 11:41:14;;;;;;;;;;;35.30;35.40;;;;;;8303009;28;19914;-64
2021/05/09 11:45:15;;;;;;;;;;;36.90;34.70;;;;;;8282497;28;19913;-64
2021/05/09 11:49:25;;;;;;;;;;;37.10;35.60;;;;;;8303335;28;19932;-63
2021/05/09 11:53:26;;;;;;;;;;;38.30;30.20;;;;;;8309086;28;19971;-64
2021/05/09 11:57:27;;;;;;;;;;;39.20;27.60;;;;;;8305598;28;20397;-63
2021/05/09 12:01:34;;;;;;;;;;;38.60;27.60;;;;;;8308358;28;19914;-63
2021/05/09 12:05:35;;;;;;;;;;;38.40;27.50;;;;;;8296301;28;19913;-64
2021/05/09 12:09:35;;;;;;;;;;;37.90;28.60;;;;;;8304175;28;19967;-64
2021/05/09 12:13:36;;;;;;;;;;;38.70;27.40;;;;;;8321120;28;20448;-64
2021/05/09 12:17:46;;;;;;;;;;;37.20;29.10;;;;;;8313049;28;19917;-64
2021/05/09 12:21:57;;;;;;;;;;;35.80;28.70;;;;;;8302134;28;19913;-64
2021/05/09 12:25:58;;;;;;;;;;;34.70;30.30;;;;;;8315566;28;19924;-64
2021/05/09 12:29:58;;;;;;;;;;;34.30;32.80;;;;;;8299898;28;19936;-65
2021/05/09 12:34:02;;;;;;;;;;;34.20;32.60;;;;;;8323849;28;19916;-64
2021/05/09 12:38:03;;;;;;;;;;;34.30;33.70;;;;;;8322887;28;19992;-64
2021/05/09 12:42:04;;;;;;;;;;;34.20;34.90;;;;;;8306258;28;19980;-64
2021/05/09 12:46:05;;;;;;;;;;;34.60;33.00;;;;;;8301213;28;20456;-64
2021/05/09 12:50:05;;;;;;;;;;;37.00;32.00;;;;;;8298546;28;19920;-64
2021/05/09 12:54:06;;;;;;;;;;;37.90;29.10;;;;;;8312775;28;19925;-63
2021/05/09 12:58:08;;;;;;;;;;;36.70;27.80;;;;;;8307715;28;19913;-64
2021/05/09 13:02:08;;;;;;;;;;;38.20;26.80;;;;;;8310451;28;19921;-64
2021/05/09 13:06:09;;;;;;;;;;;38.70;26.60;;;;;;8294537;28;19975;-64
2021/05/09 13:10:10;;;;;;;;;;;41.00;27.90;;;;;;8290281;28;19921;-66
2021/05/09 13:14:10;;;;;;;;;;;42.00;24.00;;;;;;8289564;28;19928;-65
2021/05/09 13:18:11;;;;;;;;;;;41.40;26.50;;;;;;8307915;28;20000;-66
2021/05/09 13:22:13;;;;;;;;;;;40.90;25.40;;;;;;8307366;28;19999;-64
2021/05/09 13:26:14;;;;;;;;;;;40.50;25.30;;;;;;8288090;28;19913;-64
2021/05/09 13:30:16;;;;;;;;;;;40.80;26.80;;;;;;8308509;28;20025;-65
2021/05/09 13:34:16;;;;;;;;;;;41.70;23.70;;;;;;8313055;28;19935;-64
2021/05/09 13:38:17;;;;;;;;;;;41.00;24.20;;;;;;8303252;28;20003;-64
2021/05/09 13:42:17;;;;;;;;;;;40.90;25.80;;;;;;8295986;28;19917;-65
2021/05/09 13:46:18;;;;;;;;;;;42.30;25.00;;;;;;8293252;28;19952;-64
2021/05/09 13:50:18;;;;;;;;;;;41.90;24.80;;;;;;8312169;28;19968;-64
2021/05/09 13:54:19;;;;;;;;;;;42.60;23.50;;;;;;8315110;28;19920;-65
2021/05/09 13:58:20;;;;;;;;;;;42.30;23.90;;;;;;8328371;28;19916;-64
2021/05/09 14:02:20;;;;;;;;;;;41.80;23.80;;;;;;8307201;28;19959;-65
2021/05/09 14:06:21;;;;;;;;;;;42.60;33.90;;;;;;8309586;28;19917;-65
2021/05/09 14:10:21;;;;;;;;;;;43.10;27.00;;;;;;8309635;28;19918;-65
2021/05/09 14:14:22;;;;;;;;;;;43.80;22.50;;;;;;8296236;28;19913;-65
2021/05/09 14:18:23;;;;;;;;;;;45.30;22.10;;;;;;8319376;28;19952;-65
2021/05/09 14:22:23;;;;;;;;;;;44.90;21.60;;;;;;8305635;28;19948;-65
2021/05/09 14:26:25;;;;;;;;;;;44.20;22.90;;;;;;8323585;28;20375;-66
2021/05/09 14:30:25;;;;;;;;;;;43.60;23.70;;;;;;8300291;28;19961;-65
2021/05/09 14:34:26;;;;;;;;;;;42.60;22.90;;;;;;8323722;28;19940;-66
2021/05/09 14:38:27;;;;;;;;;;;40.50;23.80;;;;;;8320454;28;19974;-65
2021/05/09 14:42:27;;;;;;;;;;;41.40;22.10;;;;;;8307561;28;19923;-65
2021/05/09 14:46:28;;;;;;;;;;;41.30;22.00;;;;;;8308258;28;19921;-65
2021/05/09 14:50:28;;;;;;;;;;;41.40;21.40;;;;;;8323619;28;19928;-65
2021/05/09 14:54:29;;;;;;;;;;;40.70;21.30;;;;;;8321148;28;20307;-65
2021/05/09 14:58:29;;;;;;;;;;;39.10;24.10;;;;;;8325643;28;20006;-65
2021/05/09 15:02:30;;;;;;;;;;;38.90;22.60;;;;;;8319345;28;19913;-65
2021/05/09 15:06:30;;;;;;;;;;;38.20;25.20;;;;;;8318922;28;19917;-65
2021/05/09 15:10:31;;;;;;;;;;;39.00;23.00;;;;;;8318208;28;19963;-65
2021/05/09 15:14:32;;;;;;;;;;;39.20;23.30;;;;;;8299802;28;19917;-64
2021/05/09 15:18:32;;;;;;;;;;;39.60;24.20;;;;;;8316782;28;19919;-65
2021/05/09 15:22:33;;;;;;;;;;;40.50;24.20;;;;;;8314921;28;19963;-66
2021/05/09 15:26:33;;;;;;;;;;;40.20;24.40;;;;;;8315609;28;20361;-65
2021/05/09 15:30:34;;;;;;;;;;;39.50;23.80;;;;;;8296125;28;19932;-65
2021/05/09 15:34:36;;;;;;;;;;;39.80;24.60;;;;;;8318095;28;19917;-65
2021/05/09 15:38:37;;;;;;;;;;;39.60;25.50;;;;;;8314377;28;21208;-65
2021/05/09 15:42:38;;;;;;;;;;;41.40;23.80;;;;;;8356811;22;19932;-68
2021/05/09 15:46:38;;;;;;;;;;;42.10;22.00;;;;;;8375178;28;19917;-68
2021/05/09 15:50:39;;;;;;;;;;;42.60;22.70;;;;;;8375152;28;19925;-66
2021/05/09 15:54:39;;;;;;;;;;;44.40;23.10;;;;;;8326857;28;19947;-67
2021/05/09 15:58:40;;;;;;;;;;;41.50;21.70;;;;;;8323557;28;19955;-68
2021/05/09 16:02:40;;;;;;;;;;;40.80;23.70;;;;;;8323925;28;20075;-68
2021/05/09 16:06:41;;;;;;;;;;;41.60;23.40;;;;;;8340790;28;19916;-67
2021/05/09 16:10:41;;;;;;;;;;;39.80;22.50;;;;;;8331012;28;19936;-67
2021/05/09 16:14:42;;;;;;;;;;;36.90;26.30;;;;;;8352437;28;19917;-68
2021/05/09 16:18:42;;;;;;;;;;;35.30;25.20;;;;;;8327858;28;19924;-68
2021/05/09 16:22:43;;;;;;;;;;;33.60;27.70;;;;;;8322110;28;20612;-68
2021/05/09 16:26:44;;;;;;;;;;;33.30;29.00;;;;;;8322539;28;19919;-68
2021/05/09 16:30:44;;;;;;;;;;;33.40;29.80;;;;;;8333911;28;19921;-68
2021/05/09 16:34:45;;;;;;;;;;;33.50;32.80;;;;;;8341152;28;19917;-67
2021/05/09 16:38:45;;;;;;;;;;;33.40;32.20;;;;;;8339525;28;20011;-68
2021/05/09 16:42:46;;;;;;;;;;;33.20;31.90;;;;;;8341980;28;20338;-68
2021/05/09 16:46:46;;;;;;;;;;;32.90;33.10;;;;;;8330472;28;19912;-67
2021/05/09 16:50:47;;;;;;;;;;;32.80;29.10;;;;;;8335657;28;20367;-68
2021/05/09 16:54:51;;;;;;;;;;;34.50;32.90;;;;;;8349091;28;19913;-68
2021/05/09 16:58:52;;;;;;;;;;;36.00;27.90;;;;;;8340042;28;19909;-68
2021/05/09 17:02:52;;;;;;;;;;;36.40;30.00;;;;;;8339521;28;19916;-68
2021/05/09 17:06:53;;;;;;;;;;;36.70;30.10;;;;;;8360261;28;19916;-68
2021/05/09 17:10:54;;;;;;;;;;;37.70;29.50;;;;;;8334927;28;19921;-68
2021/05/09 17:14:57;;;;;;;;;;;38.90;25.90;;;;;;8354636;28;19924;-68
2021/05/09 17:18:57;;;;;;;;;;;38.50;25.50;;;;;;8337646;28;19953;-68
2021/05/09 17:22:58;;;;;;;;;;;38.90;25.20;;;;;;8362158;28;19916;-68
2021/05/09 17:26:58;;;;;;;;;;;38.50;24.20;;;;;;8353463;28;19939;-68
2021/05/09 17:30:59;;;;;;;;;;;37.10;26.70;;;;;;8345852;28;19912;-67
2021/05/09 17:34:59;;;;;;;;;;;34.10;28.40;;;;;;8353385;28;19913;-68
2021/05/09 17:39:00;;;;;;;;;;;32.20;32.00;;;;;;8360754;28;19909;-67
2021/05/09 17:43:01;;;;;;;;;;;30.60;33.20;;;;;;8327322;28;19927;-67
2021/05/09 17:47:01;;;;;;;;;;;29.20;35.20;;;;;;8346948;28;20290;-67
2021/05/09 17:51:02;;;;;;;;;;;28.00;37.10;;;;;;8354189;28;20276;-67
2021/05/09 17:55:03;;;;;;;;;;;27.10;38.40;;;;;;8352390;28;20382;-67
2021/05/09 17:59:04;;;;;;;;;;;26.30;39.60;;;;;;8359024;28;19920;-67
2021/05/09 18:03:04;;;;;;;;;;;25.80;41.90;;;;;;8357746;28;19909;-67
2021/05/09 18:07:05;;;;;;;;;;;25.30;42.90;;;;;;8343432;28;19913;-67
2021/05/09 18:11:05;;;;;;;;;;;25.10;42.00;;;;;;8356240;28;20083;-67
2021/05/09 18:15:11;;;;;;;;;;;24.70;42.40;;;;;;8361884;28;20338;-67
2021/05/09 18:23:12;;;;;;;;;;;23.90;43.50;;;;;;8347707;28;20353;-66
2021/05/09 18:27:13;;;;;;;;;;;23.70;44.50;;;;;;8344421;28;19912;-67
2021/05/09 18:31:13;;;;;;;;;;;23.50;44.60;;;;;;8331241;28;20009;-68
2021/05/09 18:35:14;;;;;;;;;;;23.10;45.60;;;;;;8357124;28;19958;-66
2021/05/09 18:39:15;;;;;;;;;;;22.90;46.00;;;;;;8324472;28;19921;-66
2021/05/09 18:43:15;;;;;;;;;;;22.60;46.40;;;;;;8330421;28;19924;-67
2021/05/09 18:47:17;;;;;;;;;;;22.40;46.80;;;;;;8328910;28;19913;-66
2021/05/09 18:51:17;;;;;;;;;;;22.30;47.50;;;;;;8354732;28;20516;-67
2021/05/09 18:55:18;;;;;;;;;;;22.10;47.40;;;;;;8357296;28;19913;-66
2021/05/09 18:59:20;;;;;;;;;;;22.00;48.10;;;;;;8347865;28;19917;-66
2021/05/09 19:03:21;;;;;;;;;;;21.80;48.30;;;;;;8344579;28;19927;-65
2021/05/09 19:07:23;;;;;;;;;;;21.70;49.00;;;;;;8328945;28;20365;-67
2021/05/09 19:11:24;;;;;;;;;;;21.60;48.90;;;;;;8347417;28;19928;-66
2021/05/09 19:15:25;;;;;;;;;;;21.60;49.20;;;;;;8351091;28;19972;-67
2021/05/09 19:19:25;;;;;;;;;;;21.40;49.70;;;;;;8344530;28;19909;-68
2021/05/09 19:23:26;;;;;;;;;;;21.30;49.90;;;;;;8335518;28;19925;-68
2021/05/09 19:27:26;;;;;;;;;;;21.20;50.30;;;;;;8339108;28;19978;-68
2021/05/09 19:31:27;;;;;;;;;;;21.10;50.40;;;;;;8335721;28;19921;-68
2021/05/09 19:35:28;;;;;;;;;;;21.00;50.80;;;;;;8331098;28;19921;-68
2021/05/09 19:39:28;;;;;;;;;;;20.90;51.00;;;;;;8332671;28;19927;-67
2021/05/09 19:43:29;;;;;;;;;;;20.90;51.10;;;;;;8329306;28;19929;-67
2021/05/09 19:47:39;;;;;;;;;;;20.80;51.50;;;;;;8336752;28;19921;-67
2021/05/09 19:51:40;;;;;;;;;;;20.70;51.60;;;;;;8322492;28;19921;-67
2021/05/09 19:55:41;;;;;;;;;;;20.60;51.50;;;;;;8337882;28;20007;-67
2021/05/09 19:59:41;;;;;;;;;;;20.60;52.10;;;;;;8337314;28;19917;-68
2021/05/09 20:03:42;;;;;;;;;;;20.50;52.30;;;;;;8319996;28;19997;-67
2021/05/09 20:07:45;;;;;;;;;;;20.40;52.40;;;;;;8335647;28;19976;-68
2021/05/09 20:11:46;;;;;;;;;;;20.30;52.80;;;;;;8320023;28;19917;-68
2021/05/09 20:15:46;;;;;;;;;;;20.20;53.30;;;;;;8333458;28;19957;-68
2021/05/09 20:19:47;;;;;;;;;;;20.20;53.30;;;;;;8338456;28;19912;-67
2021/05/09 20:23:48;;;;;;;;;;;20.10;53.60;;;;;;8338498;28;19951;-67
2021/05/09 20:27:48;;;;;;;;;;;20.00;53.70;;;;;;8332227;28;19913;-67
2021/05/09 20:31:50;;;;;;;;;;;20.00;53.60;;;;;;8355334;28;19917;-67
2021/05/09 20:35:50;;;;;;;;;;;19.90;54.10;;;;;;8353721;28;19920;-67
2021/05/09 20:39:51;;;;;;;;;;;19.80;54.30;;;;;;8346397;28;19924;-67
2021/05/09 20:43:51;;;;;;;;;;;19.70;54.60;;;;;;8314472;28;20379;-67
2021/05/09 20:47:52;;;;;;;;;;;19.70;54.50;;;;;;8358523;28;19919;-67
2021/05/09 20:51:52;;;;;;;;;;;19.70;54.20;;;;;;8346822;28;19916;-67
2021/05/09 20:55:53;;;;;;;;;;;19.70;54.40;;;;;;8347206;28;19916;-67
2021/05/09 20:59:53;;;;;;;;;;;19.60;54.60;;;;;;8364973;28;19909;-67
2021/05/09 21:03:54;;;;;;;;;;;19.60;54.50;;;;;;8364532;28;20326;-67
2021/05/09 21:07:54;;;;;;;;;;;19.70;54.40;;;;;;8364925;28;19909;-67
2021/05/09 21:11:55;;;;;;;;;;;19.60;54.30;;;;;;8364685;28;19916;-67
2021/05/09 21:15:55;;;;;;;;;;;19.70;53.80;;;;;;8347087;28;20264;-67
2021/05/09 21:19:55;;;;;;;;;;;19.60;54.00;;;;;;8364805;28;20268;-67
2021/05/09 21:23:56;;;;;;;;;;;19.60;54.30;;;;;;8364501;28;19909;-67
2021/05/09 21:27:56;;;;;;;;;;;19.60;54.20;;;;;;8346821;28;19934;-67
2021/05/09 21:31:57;;;;;;;;;;;19.60;54.60;;;;;;8364454;28;19923;-67
2021/05/09 21:35:59;;;;;;;;;;;19.50;54.70;;;;;;8364599;28;19916;-67
2021/05/09 21:39:59;;;;;;;;;;;19.60;54.30;;;;;;8364404;28;19945;-67
2021/05/09 21:44:00;;;;;;;;;;;19.50;54.30;;;;;;8409530;23;19923;-95
2021/05/09 21:48:00;;;;;;;;;;;19.50;54.50;;;;;;8442526;28;19907;-94
2021/05/09 21:52:01;;;;;;;;;;;19.40;54.80;;;;;;8440974;28;19972;-94
2021/05/09 21:56:01;;;;;;;;;;;19.40;54.80;;;;;;8441744;28;20098;-93
2021/05/09 22:00:09;;;;;;;;;;;19.40;55.00;;;;;;8441681;28;19896;-95
2021/05/09 22:04:10;;;;;;;;;;;19.30;55.30;;;;;;8427539;28;19915;-94
2021/05/09 22:08:11;;;;;;;;;;;19.10;55.70;;;;;;8408253;28;19901;-94
2021/05/09 22:12:12;;;;;;;;;;;19.10;55.70;;;;;;8408037;28;19901;-94
2021/05/09 22:16:12;;;;;;;;;;;19.00;55.80;;;;;;8408494;28;19968;-95
2021/05/09 22:20:13;;;;;;;;;;;19.00;55.80;;;;;;8408067;28;19923;-94
2021/05/09 22:24:15;;;;;;;;;;;19.00;55.80;;;;;;8408471;22;19929;-62
2021/05/09 22:28:16;;;;;;;;;;;19.00;55.90;;;;;;8354241;28;19913;-62
2021/05/09 22:32:17;;;;;;;;;;;18.90;56.00;;;;;;8360978;28;20316;-62
2021/05/09 22:36:19;;;;;;;;;;;18.90;56.50;;;;;;8362572;28;19915;-61
2021/05/09 22:40:20;;;;;;;;;;;18.80;56.60;;;;;;8361746;28;20291;-62
2021/05/09 22:44:20;;;;;;;;;;;18.80;56.50;;;;;;8361556;28;19909;-62
2021/05/09 22:48:21;;;;;;;;;;;18.70;56.50;;;;;;8361065;28;20438;-62
2021/05/09 22:52:21;;;;;;;;;;;18.80;56.40;;;;;;8360547;28;19920;-62
2021/05/09 22:56:22;;;;;;;;;;;18.80;56.30;;;;;;8361120;28;19909;-62
2021/05/09 23:00:22;;;;;;;;;;;18.80;56.40;;;;;;8360071;28;19909;-62
2021/05/09 23:04:23;;;;;;;;;;;18.80;56.20;;;;;;8360046;28;19909;-62
2021/05/09 23:08:23;;;;;;;;;;;18.80;56.40;;;;;;8360386;28;19915;-62
2021/05/09 23:12:24;;;;;;;;;;;18.70;57.50;;;;;;8359981;28;20554;-62
2021/05/09 23:16:33;;;;;;;;;;;18.70;56.70;;;;;;8360625;28;20023;-62
2021/05/09 23:24:37;;;;;;;;;;;18.40;57.70;;;;;;8360310;28;19921;-62
2021/05/09 23:28:37;;;;;;;;;;;18.30;58.00;;;;;;8375943;28;19948;-63
2021/05/09 23:32:38;;;;;;;;;;;18.20;58.40;;;;;;8359046;28;19970;-62
2021/05/09 23:36:38;;;;;;;;;;;18.20;58.60;;;;;;8360440;28;19912;-62